createdAt,value
2019-04-27T00:01:50.867Z,10.72
2019-04-27T00:04:37.279Z,10.68
2019-04-27T00:07:26.568Z,10.63
2019-04-27T00:10:00.726Z,10.66
2019-04-27T00:12:27.566Z,10.70
2019-04-27T00:14:56.073Z,10.72
2019-04-27T00:17:49.577Z,10.68
2019-04-27T00:20:43.365Z,10.65
2019-04-27T00:23:13.298Z,10.64
2019-04-27T00:25:41.364Z,10.64
2019-04-27T00:28:08.109Z,10.76
2019-04-27T00:30:35.573Z,10.67
2019-04-27T00:33:03.032Z,10.67
2019-04-27T00:35:39.699Z,10.71
2019-04-27T00:38:24.878Z,10.76
2019-04-27T00:41:05.134Z,10.70
2019-04-27T00:43:34.008Z,10.58
2019-04-27T00:46:00.841Z,10.62
2019-04-27T00:48:27.784Z,10.51
2019-04-27T00:50:54.638Z,10.52
2019-04-27T00:53:21.230Z,10.54
2019-04-27T00:56:05.686Z,10.51
2019-04-27T00:58:39.472Z,10.46
2019-04-27T01:01:24.171Z,10.45
2019-04-27T01:04:04.001Z,10.45
2019-04-27T01:06:30.712Z,10.42
2019-04-27T01:08:57.331Z,10.36
2019-04-27T01:11:24.931Z,10.28
2019-04-27T01:13:53.669Z,10.22
2019-04-27T01:16:22.473Z,10.15
2019-04-27T01:18:49.957Z,10.11
2019-04-27T01:21:16.568Z,10.09
2019-04-27T01:23:44.709Z,10.08
2019-04-27T01:26:34.742Z,10.03
2019-04-27T01:29:04.431Z,9.95
2019-04-27T01:31:31.716Z,9.87
2019-04-27T01:33:59.048Z,9.84
2019-04-27T01:36:26.426Z,9.72
2019-04-27T01:38:53.085Z,9.63
2019-04-27T01:41:19.755Z,9.59
2019-04-27T01:43:46.362Z,9.57
2019-04-27T01:46:13.167Z,9.46
2019-04-27T01:48:39.771Z,9.40
2019-04-27T01:51:06.397Z,9.45
2019-04-27T01:53:33.117Z,9.44
2019-04-27T01:55:59.827Z,9.34
2019-04-27T01:58:26.594Z,9.40
2019-04-27T02:01:25.024Z,9.34
2019-04-27T02:04:05.128Z,9.42
2019-04-27T02:06:31.956Z,9.36
2019-04-27T02:08:59.527Z,9.40
2019-04-27T02:11:28.642Z,9.50
2019-04-27T02:13:59.434Z,9.65
2019-04-27T02:16:30.337Z,9.65
2019-04-27T02:18:55.972Z,9.43
2019-04-27T02:21:22.711Z,9.43
2019-04-27T02:23:49.807Z,9.60
2019-04-27T02:26:16.905Z,9.63
2019-04-27T02:28:53.897Z,9.74
2019-04-27T02:31:31.277Z,9.54
2019-04-27T02:34:05.563Z,9.61
2019-04-27T02:36:34.021Z,9.59
2019-04-27T02:39:00.772Z,9.42
2019-04-27T02:41:29.770Z,9.55
2019-04-27T02:44:11.477Z,9.55
2019-04-27T02:46:39.517Z,9.68
2019-04-27T02:49:07.490Z,9.50
2019-04-27T02:51:49.622Z,9.47
2019-04-27T02:54:16.509Z,9.46
2019-04-27T02:56:43.383Z,9.58
2019-04-27T02:59:11.960Z,9.65
2019-04-27T03:01:46.897Z,9.56
2019-04-27T03:04:13.908Z,9.63
2019-04-27T03:06:40.726Z,9.45
2019-04-27T03:09:10.479Z,9.43
2019-04-27T03:11:39.581Z,9.50
2019-04-27T03:14:36.233Z,9.61
2019-04-27T03:17:19.968Z,9.67
2019-04-27T03:19:55.579Z,9.66
2019-04-27T03:22:32.992Z,9.63
2019-04-27T03:25:30.323Z,9.62
2019-04-27T03:28:03.061Z,9.59
2019-04-27T03:30:31.632Z,9.62
2019-04-27T03:33:02.786Z,9.59
2019-04-27T03:35:32.104Z,9.48
2019-04-27T03:38:00.353Z,9.54
2019-04-27T03:40:26.555Z,9.54
2019-04-27T03:42:56.538Z,9.66
2019-04-27T03:45:23.321Z,9.56
2019-04-27T03:47:50.758Z,9.54
2019-04-27T03:50:23.110Z,9.50
2019-04-27T03:53:10.312Z,9.55
2019-04-27T03:55:39.763Z,9.41
2019-04-27T03:58:21.401Z,9.53
2019-04-27T04:00:46.371Z,9.40
2019-04-27T04:03:14.426Z,9.42
2019-04-27T04:05:41.332Z,9.36
2019-04-27T04:08:10.445Z,9.32
2019-04-27T04:10:41.713Z,9.19
2019-04-27T04:13:20.419Z,9.35
2019-04-27T04:16:14.496Z,9.34
2019-04-27T04:19:00.912Z,9.40
2019-04-27T04:21:29.807Z,9.27
2019-04-27T04:23:56.479Z,9.29
2019-04-27T04:26:23.389Z,9.21
2019-04-27T04:28:50.184Z,9.20
2019-04-27T04:31:16.968Z,9.22
2019-04-27T04:33:43.841Z,9.27
2019-04-27T04:36:10.603Z,9.24
2019-04-27T04:38:37.401Z,9.25
2019-04-27T04:41:09.571Z,9.20
2019-04-27T04:43:45.223Z,9.32
2019-04-27T04:46:32.856Z,9.35
2019-04-27T04:49:00.356Z,9.27
2019-04-27T04:51:30.281Z,9.29
2019-04-27T04:53:59.744Z,9.27
2019-04-27T04:56:26.711Z,9.35
2019-04-27T04:58:53.655Z,9.27
2019-04-27T05:01:21.520Z,9.18
2019-04-27T05:03:48.931Z,9.09
2019-04-27T05:06:16.030Z,8.97
2019-04-27T05:08:44.571Z,8.97
2019-04-27T05:11:11.264Z,8.94
2019-04-27T05:13:39.336Z,8.93
2019-04-27T05:16:06.451Z,8.94
2019-04-27T05:18:33.198Z,8.97
2019-04-27T05:21:06.047Z,8.95
2019-04-27T05:23:32.900Z,8.95
2019-04-27T05:25:59.721Z,8.95
2019-04-27T05:28:26.353Z,9.03
2019-04-27T05:30:54.223Z,9.20
2019-04-27T05:33:22.645Z,9.32
2019-04-27T05:35:49.435Z,9.54
2019-04-27T05:38:16.429Z,9.75
2019-04-27T05:40:43.190Z,10.15
2019-04-27T05:43:11.928Z,10.46
2019-04-27T05:46:42.073Z,10.72
2019-04-27T05:49:31.621Z,10.95
2019-04-27T05:51:59.462Z,11.14
2019-04-27T05:54:29.279Z,11.29
2019-04-27T05:56:55.042Z,11.60
2019-04-27T05:59:21.875Z,11.91
2019-04-27T06:01:49.318Z,12.20
2019-04-27T06:04:16.651Z,12.51
2019-04-27T06:06:43.814Z,12.87
2019-04-27T06:09:12.036Z,12.64
2019-04-27T06:11:39.980Z,12.83
2019-04-27T06:14:07.159Z,13.00
2019-04-27T06:16:33.709Z,13.11
2019-04-27T06:19:00.287Z,13.20
2019-04-27T06:21:29.515Z,13.25
2019-04-27T06:23:56.359Z,13.21
2019-04-27T06:26:23.719Z,13.31
2019-04-27T06:28:50.539Z,13.59
2019-04-27T06:31:17.279Z,13.93
2019-04-27T06:33:43.878Z,14.34
2019-04-27T06:36:10.848Z,14.45
2019-04-27T06:38:39.393Z,14.81
2019-04-27T06:41:10.024Z,14.80
2019-04-27T06:43:40.446Z,15.21
2019-04-27T06:46:10.445Z,15.68
2019-04-27T06:48:37.395Z,17.11
2019-04-27T06:51:05.875Z,16.81
2019-04-27T06:53:32.732Z,17.91
2019-04-27T06:55:59.503Z,16.55
2019-04-27T06:58:26.596Z,17.42
2019-04-27T07:00:53.183Z,18.59
2019-04-27T07:03:19.946Z,18.73
2019-04-27T07:05:48.614Z,18.04
2019-04-27T07:08:16.230Z,17.81
2019-04-27T07:10:43.515Z,17.66
2019-04-27T07:13:10.540Z,18.04
2019-04-27T07:15:38.707Z,18.81
2019-04-27T07:18:05.552Z,18.98
2019-04-27T07:20:32.567Z,19.91
2019-04-27T07:23:00.195Z,19.79
2019-04-27T07:25:28.807Z,20.13
2019-04-27T07:27:55.486Z,21.03
2019-04-27T07:30:22.251Z,19.86
2019-04-27T07:32:49.014Z,19.99
2019-04-27T07:35:16.639Z,20.27
2019-04-27T07:37:43.346Z,20.23
2019-04-27T07:40:10.326Z,20.13
2019-04-27T07:42:36.915Z,20.47
2019-04-27T07:45:12.516Z,19.98
2019-04-27T07:47:41.952Z,19.87
2019-04-27T07:50:09.662Z,19.98
2019-04-27T07:52:37.950Z,20.07
2019-04-27T07:55:05.148Z,20.61
2019-04-27T07:57:32.111Z,20.29
2019-04-27T07:59:59.624Z,20.15
2019-04-27T08:02:26.456Z,20.68
2019-04-27T08:04:53.093Z,21.85
2019-04-27T08:07:19.898Z,21.45
2019-04-27T08:09:46.588Z,21.46
2019-04-27T08:12:13.506Z,21.49
2019-04-27T08:14:40.605Z,21.63
2019-04-27T08:17:07.322Z,22.41
2019-04-27T08:19:33.933Z,21.67
2019-04-27T08:22:01.608Z,21.73
2019-04-27T08:24:29.472Z,21.98
2019-04-27T08:27:09.458Z,22.62
2019-04-27T08:29:54.693Z,23.88
2019-04-27T08:32:26.541Z,23.80
2019-04-27T08:34:53.355Z,23.41
2019-04-27T08:37:20.308Z,24.64
2019-04-27T08:39:46.939Z,24.99
2019-04-27T08:42:13.939Z,24.95
2019-04-27T08:44:40.701Z,24.39
2019-04-27T08:47:09.608Z,24.47
2019-04-27T08:49:36.276Z,24.72
2019-04-27T08:52:03.368Z,25.11
2019-04-27T08:54:29.998Z,25.96
2019-04-27T08:56:56.918Z,24.91
2019-04-27T08:59:23.824Z,25.97
2019-04-27T09:01:50.581Z,25.71
2019-04-27T09:04:17.236Z,25.44
2019-04-27T09:06:46.048Z,26.16
2019-04-27T09:09:36.299Z,26.70
2019-04-27T09:12:23.100Z,27.07
2019-04-27T09:14:59.178Z,27.81
2019-04-27T09:17:35.969Z,27.02
2019-04-27T09:20:26.439Z,28.41
2019-04-27T09:22:53.872Z,27.69
2019-04-27T09:25:20.552Z,28.18
2019-04-27T09:27:49.146Z,27.33
2019-04-27T09:30:15.945Z,27.41
2019-04-27T09:32:42.493Z,27.60
2019-04-27T09:35:09.951Z,28.17
2019-04-27T09:37:37.105Z,28.55
2019-04-27T09:40:06.321Z,28.91
2019-04-27T09:42:36.237Z,27.30
2019-04-27T09:45:06.647Z,29.77
2019-04-27T09:47:34.096Z,28.59
2019-04-27T09:50:02.316Z,26.78
2019-04-27T09:52:30.294Z,28.50
2019-04-27T09:55:01.614Z,27.23
2019-04-27T09:57:31.748Z,27.67
2019-04-27T09:59:59.419Z,23.70
2019-04-27T10:02:27.012Z,24.58
2019-04-27T10:04:54.477Z,22.72
2019-04-27T10:07:21.858Z,25.54
2019-04-27T10:09:49.416Z,28.48
2019-04-27T10:12:17.675Z,28.88
2019-04-27T10:14:45.466Z,26.30
2019-04-27T10:17:13.911Z,25.30
2019-04-27T10:19:41.191Z,21.40
2019-04-27T10:22:08.377Z,20.50
2019-04-27T10:24:37.957Z,20.32
2019-04-27T10:27:07.760Z,19.42
2019-04-27T10:29:35.621Z,19.96
2019-04-27T10:32:06.233Z,21.21
2019-04-27T10:34:33.390Z,22.43
2019-04-27T10:37:06.397Z,21.25
2019-04-27T10:39:38.826Z,21.37
2019-04-27T10:42:06.707Z,24.80
2019-04-27T10:44:35.494Z,26.36
2019-04-27T10:47:02.313Z,27.40
2019-04-27T10:49:29.511Z,28.73
2019-04-27T10:51:56.628Z,28.08
2019-04-27T10:54:23.257Z,27.79
2019-04-27T10:56:50.456Z,25.49
2019-04-27T10:59:17.089Z,24.36
2019-04-27T11:01:45.856Z,27.42
2019-04-27T11:04:32.273Z,26.78
2019-04-27T11:07:01.473Z,26.93
2019-04-27T11:09:28.240Z,28.96
2019-04-27T11:11:57.135Z,27.35
2019-04-27T11:14:25.691Z,23.16
2019-04-27T11:16:52.934Z,23.34
2019-04-27T11:19:19.736Z,26.84
2019-04-27T11:21:46.603Z,27.13
2019-04-27T11:24:13.625Z,25.71
2019-04-27T11:26:40.409Z,24.33
2019-04-27T11:29:07.315Z,22.74
2019-04-27T11:31:34.065Z,25.69
2019-04-27T11:34:00.805Z,27.66
2019-04-27T11:36:39.212Z,27.17
2019-04-27T11:39:11.638Z,24.45
2019-04-27T11:41:38.597Z,26.13
2019-04-27T11:44:05.479Z,26.07
2019-04-27T11:46:33.265Z,25.62
2019-04-27T11:49:00.482Z,26.74
2019-04-27T11:51:27.850Z,25.27
2019-04-27T11:53:55.696Z,23.80
2019-04-27T11:56:22.253Z,25.86
2019-04-27T11:58:49.269Z,27.19
2019-04-27T12:01:16.086Z,26.25
2019-04-27T12:03:42.815Z,24.34
2019-04-27T12:06:09.551Z,22.23
2019-04-27T12:08:37.870Z,20.52
2019-04-27T12:11:05.932Z,21.73
2019-04-27T12:13:32.829Z,22.59
2019-04-27T12:15:59.531Z,25.16
2019-04-27T12:18:26.204Z,27.38
2019-04-27T12:20:55.794Z,28.62
2019-04-27T12:23:33.009Z,28.22
2019-04-27T12:25:51.522Z,29.09
2019-04-27T12:28:33.178Z,29.12
2019-04-27T12:31:19.197Z,29.30
2019-04-27T12:33:47.053Z,29.22
2019-04-27T12:36:15.644Z,28.68
2019-04-27T12:38:42.882Z,29.17
2019-04-27T12:41:10.631Z,28.71
2019-04-27T12:43:37.576Z,29.60
2019-04-27T12:46:05.941Z,28.07
2019-04-27T12:48:33.437Z,29.79
2019-04-27T12:51:01.863Z,27.59
2019-04-27T12:53:49.859Z,24.22
2019-04-27T12:56:33.750Z,22.39
2019-04-27T12:59:07.424Z,23.45
2019-04-27T13:01:36.000Z,24.74
2019-04-27T13:04:03.087Z,26.32
2019-04-27T13:06:29.921Z,24.44
2019-04-27T13:08:57.559Z,22.78
2019-04-27T13:11:26.512Z,21.21
2019-04-27T13:13:52.959Z,21.00
2019-04-27T13:16:19.612Z,19.96
2019-04-27T13:18:46.266Z,20.09
2019-04-27T13:21:13.263Z,19.64
2019-04-27T13:23:41.090Z,19.74
2019-04-27T13:26:07.900Z,19.42
2019-04-27T13:28:35.873Z,19.58
2019-04-27T13:31:03.072Z,19.26
2019-04-27T13:33:29.738Z,19.16
2019-04-27T13:35:56.451Z,19.36
2019-04-27T13:38:23.406Z,19.26
2019-04-27T13:41:06.827Z,19.01
2019-04-27T13:43:35.077Z,19.12
2019-04-27T13:46:39.640Z,18.64
2019-04-27T13:49:33.654Z,17.95
2019-04-27T13:52:07.458Z,17.01
2019-04-27T13:54:34.741Z,17.30
2019-04-27T13:57:01.523Z,17.01
2019-04-27T13:59:28.324Z,17.55
2019-04-27T14:01:55.106Z,17.61
2019-04-27T14:04:24.152Z,17.33
2019-04-27T14:06:50.904Z,16.42
2019-04-27T14:09:17.663Z,15.93
2019-04-27T14:11:44.478Z,15.49
2019-04-27T14:14:14.955Z,15.41
2019-04-27T14:16:43.977Z,15.26
2019-04-27T14:19:11.135Z,14.83
2019-04-27T14:21:38.004Z,14.95
2019-04-27T14:24:05.893Z,15.02
2019-04-27T14:26:35.614Z,14.65
2019-04-27T14:29:02.464Z,14.76
2019-04-27T14:31:30.504Z,14.47
2019-04-27T14:33:58.765Z,14.61
2019-04-27T14:36:25.860Z,14.68
2019-04-27T14:38:52.802Z,14.81
2019-04-27T14:41:21.542Z,14.94
2019-04-27T14:43:49.925Z,15.07
2019-04-27T14:46:18.647Z,15.57
2019-04-27T14:48:45.194Z,15.74
2019-04-27T14:51:12.412Z,15.58
2019-04-27T14:53:39.326Z,15.41
2019-04-27T14:56:08.842Z,15.34
2019-04-27T14:58:35.987Z,14.75
2019-04-27T15:01:02.928Z,14.63
2019-04-27T15:03:29.826Z,14.37
2019-04-27T15:05:56.793Z,14.36
2019-04-27T15:08:25.159Z,14.27
2019-04-27T15:10:53.962Z,14.24
2019-04-27T15:13:21.128Z,14.67
2019-04-27T15:15:47.820Z,14.48
2019-04-27T15:18:15.289Z,14.65
2019-04-27T15:20:46.183Z,14.69
2019-04-27T15:23:13.415Z,14.56
2019-04-27T15:25:45.614Z,14.46
2019-04-27T15:28:15.288Z,14.64
2019-04-27T15:31:23.586Z,14.28
2019-04-27T15:34:02.671Z,14.40
2019-04-27T15:36:56.885Z,14.30
2019-04-27T15:39:37.532Z,13.91
2019-04-27T15:42:08.159Z,13.84
2019-04-27T15:44:36.450Z,13.58
2019-04-27T15:47:10.339Z,14.05
2019-04-27T15:49:33.610Z,14.03
2019-04-27T15:52:00.263Z,14.08
2019-04-27T15:54:31.912Z,14.06
2019-04-27T15:56:55.863Z,14.13
2019-04-27T15:59:30.959Z,14.18
2019-04-27T16:01:55.724Z,14.15
2019-04-27T16:04:23.070Z,14.21
2019-04-27T16:06:50.205Z,14.05
2019-04-27T16:09:23.939Z,14.09
2019-04-27T16:11:50.136Z,13.84
2019-04-27T16:14:16.024Z,13.98
2019-04-27T16:16:43.783Z,14.10
2019-04-27T16:19:11.649Z,13.97
2019-04-27T16:21:41.597Z,14.04
2019-04-27T16:24:08.487Z,14.37
2019-04-27T16:26:35.275Z,14.15
2019-04-27T16:29:04.473Z,14.23
2019-04-27T16:31:32.880Z,14.07
2019-04-27T16:34:02.766Z,14.04
2019-04-27T16:36:30.002Z,14.16
2019-04-27T16:39:03.761Z,14.04
2019-04-27T16:41:33.128Z,13.92
2019-04-27T16:44:02.222Z,13.85
2019-04-27T16:46:29.448Z,13.97
2019-04-27T16:48:59.230Z,13.96
2019-04-27T16:51:24.689Z,13.81
2019-04-27T16:53:54.606Z,13.75
2019-04-27T16:56:20.994Z,13.72
2019-04-27T16:58:56.295Z,13.65
2019-04-27T17:01:21.495Z,13.63
2019-04-27T17:03:48.677Z,13.81
2019-04-27T17:06:15.605Z,13.87
2019-04-27T17:08:42.697Z,13.82
2019-04-27T17:11:13.710Z,13.86
2019-04-27T17:13:44.398Z,13.78
2019-04-27T17:16:24.790Z,13.79
2019-04-27T17:19:04.737Z,13.77
2019-04-27T17:21:33.292Z,13.72
2019-04-27T17:24:03.002Z,13.84
2019-04-27T17:26:29.233Z,13.85
2019-04-27T17:29:09.703Z,13.62
2019-04-27T17:31:35.344Z,13.59
2019-04-27T17:34:01.935Z,13.66
2019-04-27T17:36:30.368Z,13.54
2019-04-27T17:38:58.409Z,13.47
2019-04-27T17:41:25.179Z,13.21
2019-04-27T17:43:51.814Z,13.21
2019-04-27T17:46:19.953Z,13.39
2019-04-27T17:48:48.587Z,13.26
2019-04-27T17:51:15.670Z,13.15
2019-04-27T17:53:44.386Z,13.10
2019-04-27T17:56:11.183Z,12.87
2019-04-27T17:58:39.695Z,12.89
2019-04-27T18:01:09.548Z,12.83
2019-04-27T18:03:38.730Z,12.55
2019-04-27T18:06:06.001Z,12.52
2019-04-27T18:08:32.870Z,12.20
2019-04-27T18:11:03.068Z,12.04
2019-04-27T18:13:28.835Z,11.72
2019-04-27T18:15:55.516Z,11.76
2019-04-27T18:18:41.433Z,11.60
2019-04-27T18:21:09.000Z,11.40
2019-04-27T18:23:37.648Z,11.52
2019-04-27T18:26:30.135Z,11.45
2019-04-27T18:29:00.038Z,11.46
2019-04-27T18:31:25.534Z,11.43
2019-04-27T18:33:52.104Z,11.24
2019-04-27T18:36:18.943Z,11.19
2019-04-27T18:38:46.639Z,11.04
2019-04-27T18:41:14.053Z,10.96
2019-04-27T18:43:46.475Z,10.90
2019-04-27T18:46:09.653Z,11.02
2019-04-27T18:49:03.286Z,11.00
2019-04-27T18:51:52.624Z,10.93
2019-04-27T18:54:19.403Z,10.84
2019-04-27T18:56:47.825Z,10.80
2019-04-27T18:59:15.264Z,10.96
2019-04-27T19:01:41.840Z,11.04
2019-04-27T19:04:08.792Z,10.92
2019-04-27T19:06:39.124Z,11.00
2019-04-27T19:09:05.863Z,11.05
2019-04-27T19:11:33.163Z,10.86
2019-04-27T19:14:00.694Z,10.88
2019-04-27T19:16:29.193Z,10.95
2019-04-27T19:18:58.266Z,10.96
2019-04-27T19:21:24.899Z,10.93
2019-04-27T19:23:52.488Z,10.75
2019-04-27T19:26:41.385Z,10.53
2019-04-27T19:29:14.293Z,10.59
2019-04-27T19:31:45.332Z,10.67
2019-04-27T19:34:12.931Z,10.69
2019-04-27T19:36:39.586Z,10.51
2019-04-27T19:39:08.726Z,10.27
2019-04-27T19:41:37.904Z,10.35
2019-04-27T19:44:04.771Z,10.34
2019-04-27T19:46:31.448Z,10.31
2019-04-27T19:48:59.404Z,10.34
2019-04-27T19:51:28.537Z,10.36
2019-04-27T19:53:55.165Z,10.26
2019-04-27T19:56:22.227Z,10.18
2019-04-27T19:58:52.741Z,10.16
2019-04-27T20:01:28.349Z,10.31
2019-04-27T20:04:00.056Z,10.11
2019-04-27T20:06:26.787Z,10.20
2019-04-27T20:08:55.377Z,10.10
2019-04-27T20:11:22.925Z,10.02
2019-04-27T20:13:50.602Z,9.83
2019-04-27T20:16:20.798Z,9.84
2019-04-27T20:18:47.642Z,9.86
2019-04-27T20:21:14.375Z,9.81
2019-04-27T20:23:41.321Z,9.78
2019-04-27T20:26:08.137Z,9.87
2019-04-27T20:28:34.992Z,9.86
2019-04-27T20:31:02.817Z,9.79
2019-04-27T20:33:31.153Z,9.73
2019-04-27T20:35:57.893Z,9.69
2019-04-27T20:38:24.604Z,9.64
2019-04-27T20:40:52.842Z,9.65
2019-04-27T20:43:21.383Z,9.43
2019-04-27T20:45:48.279Z,9.50
2019-04-27T20:48:14.923Z,9.41
2019-04-27T20:50:41.819Z,9.48
2019-04-27T20:53:13.481Z,9.38
2019-04-27T20:55:40.483Z,9.32
2019-04-27T20:58:08.244Z,9.18
2019-04-27T21:00:35.269Z,9.30
2019-04-27T21:03:25.100Z,9.31
2019-04-27T21:06:21.238Z,9.25
2019-04-27T21:08:49.336Z,9.29
2019-04-27T21:11:16.303Z,9.28
2019-04-27T21:13:43.252Z,9.26
2019-04-27T21:16:10.932Z,9.22
2019-04-27T21:18:38.594Z,9.23
2019-04-27T21:21:05.483Z,9.19
2019-04-27T21:23:32.344Z,9.17
2019-04-27T21:25:59.300Z,9.07
2019-04-27T21:28:26.009Z,9.06
2019-04-27T21:30:53.079Z,9.10
2019-04-27T21:33:21.552Z,9.07
2019-04-27T21:35:51.013Z,9.03
2019-04-27T21:38:17.831Z,9.02
2019-04-27T21:40:44.451Z,8.89
2019-04-27T21:43:11.439Z,8.83
2019-04-27T21:45:38.026Z,8.91
2019-04-27T21:48:04.647Z,8.96
2019-04-27T21:50:31.646Z,8.96
2019-04-27T21:53:04.415Z,9.09
2019-04-27T21:55:31.185Z,9.09
2019-04-27T21:57:57.844Z,8.92
2019-04-27T22:00:52.469Z,8.94
2019-04-27T22:03:24.771Z,8.98
2019-04-27T22:05:51.665Z,8.90
2019-04-27T22:08:18.301Z,8.77
2019-04-27T22:10:45.067Z,8.73
2019-04-27T22:13:11.798Z,8.70
2019-04-27T22:15:38.524Z,8.70
2019-04-27T22:18:05.312Z,8.71
2019-04-27T22:20:32.504Z,8.65
2019-04-27T22:23:01.800Z,8.76
2019-04-27T22:25:32.363Z,8.85
2019-04-27T22:27:59.038Z,8.83
2019-04-27T22:30:25.891Z,8.99
2019-04-27T22:32:52.578Z,8.99
2019-04-27T22:35:20.693Z,8.86
2019-04-27T22:37:49.077Z,8.89
2019-04-27T22:40:39.496Z,8.83
2019-04-27T22:43:20.410Z,8.83
2019-04-27T22:45:47.151Z,8.85
2019-04-27T22:48:13.708Z,8.85
2019-04-27T22:50:41.338Z,8.86
2019-04-27T22:53:08.504Z,8.79
2019-04-27T22:55:38.511Z,8.83
2019-04-27T22:58:12.628Z,8.91
2019-04-27T23:00:57.475Z,8.94
2019-04-27T23:03:28.526Z,8.87
2019-04-27T23:05:55.148Z,8.92
2019-04-27T23:08:22.694Z,8.92
2019-04-27T23:10:49.539Z,8.98
2019-04-27T23:13:16.538Z,8.97
2019-04-27T23:15:46.275Z,8.85
2019-04-27T23:18:13.267Z,8.91
2019-04-27T23:20:40.769Z,8.80
2019-04-27T23:23:11.271Z,8.78
2019-04-27T23:25:38.019Z,8.88
2019-04-27T23:28:05.992Z,8.94
2019-04-27T23:30:43.409Z,8.73
2019-04-27T23:33:11.149Z,8.77
2019-04-27T23:35:41.059Z,8.86
2019-04-27T23:38:16.834Z,8.76
2019-04-27T23:40:36.965Z,8.72
2019-04-27T23:43:03.798Z,8.77
2019-04-27T23:45:31.901Z,8.67
2019-04-27T23:47:58.780Z,8.75
2019-04-27T23:50:27.749Z,8.93
2019-04-27T23:53:05.881Z,8.75
2019-04-27T23:55:33.582Z,8.77
2019-04-27T23:58:00.541Z,8.71
